sensor_id;sensor_type;location;lat;lon;timestamp;P1;durP1;ratioP1;P2;durP2;ratioP2
14876;SDS011;69691;48.172;17.070;2024-01-30T00:02:12;53.67;;;24.35;;
14876;SDS011;69691;48.172;17.070;2024-01-30T00:04:38;56.45;;;23.92;;
14876;SDS011;69691;48.172;17.070;2024-01-30T00:07:04;50.00;;;23.45;;
14876;SDS011;69691;48.172;17.070;2024-01-30T00:09:30;51.33;;;25.02;;
14876;SDS011;69691;48.172;17.070;2024-01-30T00:11:56;54.92;;;25.33;;
14876;SDS011;69691;48.172;17.070;2024-01-30T00:14:22;53.25;;;23.85;;
14876;SDS011;69691;48.172;17.070;2024-01-30T00:16:48;52.78;;;23.50;;
14876;SDS011;69691;48.172;17.070;2024-01-30T00:19:14;56.88;;;26.60;;
14876;SDS011;69691;48.172;17.070;2024-01-30T00:21:40;49.70;;;23.65;;
14876;SDS011;69691;48.172;17.070;2024-01-30T00:24:06;56.00;;;25.33;;
14876;SDS011;69691;48.172;17.070;2024-01-30T00:26:32;58.05;;;25.92;;
14876;SDS011;69691;48.172;17.070;2024-01-30T00:28:58;46.05;;;24.92;;
14876;SDS011;69691;48.172;17.070;2024-01-30T00:31:24;56.75;;;23.88;;
14876;SDS011;69691;48.172;17.070;2024-01-30T00:33:50;58.95;;;27.33;;
14876;SDS011;69691;48.172;17.070;2024-01-30T00:36:15;52.75;;;25.05;;
14876;SDS011;69691;48.172;17.070;2024-01-30T00:38:41;50.70;;;22.65;;
14876;SDS011;69691;48.172;17.070;2024-01-30T00:41:08;56.42;;;26.08;;
14876;SDS011;69691;48.172;17.070;2024-01-30T00:43:34;55.83;;;24.75;;
14876;SDS011;69691;48.172;17.070;2024-01-30T00:46:01;53.80;;;24.83;;
14876;SDS011;69691;48.172;17.070;2024-01-30T00:48:27;56.53;;;24.73;;
14876;SDS011;69691;48.172;17.070;2024-01-30T00:50:53;47.35;;;23.50;;
14876;SDS011;69691;48.172;17.070;2024-01-30T00:53:18;52.90;;;26.42;;
14876;SDS011;69691;48.172;17.070;2024-01-30T00:55:44;53.20;;;24.98;;
14876;SDS011;69691;48.172;17.070;2024-01-30T00:58:10;52.70;;;26.13;;
14876;SDS011;69691;48.172;17.070;2024-01-30T01:00:36;56.25;;;25.60;;
14876;SDS011;69691;48.172;17.070;2024-01-30T01:03:04;57.40;;;26.98;;
14876;SDS011;69691;48.172;17.070;2024-01-30T01:05:30;60.42;;;26.13;;
14876;SDS011;69691;48.172;17.070;2024-01-30T01:07:56;56.60;;;24.40;;
14876;SDS011;69691;48.172;17.070;2024-01-30T01:10:22;53.80;;;26.15;;
14876;SDS011;69691;48.172;17.070;2024-01-30T01:12:48;48.83;;;25.17;;
14876;SDS011;69691;48.172;17.070;2024-01-30T01:15:14;48.65;;;25.38;;
14876;SDS011;69691;48.172;17.070;2024-01-30T01:17:40;53.00;;;26.10;;
14876;SDS011;69691;48.172;17.070;2024-01-30T01:20:06;59.90;;;26.83;;
14876;SDS011;69691;48.172;17.070;2024-01-30T01:22:33;48.30;;;24.48;;
14876;SDS011;69691;48.172;17.070;2024-01-30T01:25:02;51.78;;;24.83;;
14876;SDS011;69691;48.172;17.070;2024-01-30T01:27:29;57.15;;;25.08;;
14876;SDS011;69691;48.172;17.070;2024-01-30T01:29:54;51.20;;;24.67;;
14876;SDS011;69691;48.172;17.070;2024-01-30T01:32:20;57.47;;;25.88;;
14876;SDS011;69691;48.172;17.070;2024-01-30T01:34:46;54.30;;;27.27;;
14876;SDS011;69691;48.172;17.070;2024-01-30T01:37:12;52.13;;;26.52;;
14876;SDS011;69691;48.172;17.070;2024-01-30T01:39:38;60.67;;;28.90;;
14876;SDS011;69691;48.172;17.070;2024-01-30T01:42:03;56.85;;;25.30;;
14876;SDS011;69691;48.172;17.070;2024-01-30T01:44:29;49.88;;;25.10;;
14876;SDS011;69691;48.172;17.070;2024-01-30T01:46:55;46.97;;;24.45;;
14876;SDS011;69691;48.172;17.070;2024-01-30T01:49:24;48.42;;;23.30;;
14876;SDS011;69691;48.172;17.070;2024-01-30T01:51:53;52.38;;;24.10;;
14876;SDS011;69691;48.172;17.070;2024-01-30T01:54:21;42.08;;;22.95;;
14876;SDS011;69691;48.172;17.070;2024-01-30T01:56:49;45.38;;;22.42;;
14876;SDS011;69691;48.172;17.070;2024-01-30T01:59:16;51.55;;;25.40;;
14876;SDS011;69691;48.172;17.070;2024-01-30T02:01:43;53.40;;;26.33;;
14876;SDS011;69691;48.172;17.070;2024-01-30T02:04:10;53.92;;;24.70;;
14876;SDS011;69691;48.172;17.070;2024-01-30T02:06:36;60.35;;;25.10;;
14876;SDS011;69691;48.172;17.070;2024-01-30T02:09:03;48.28;;;23.75;;
14876;SDS011;69691;48.172;17.070;2024-01-30T02:11:29;48.20;;;24.60;;
14876;SDS011;69691;48.172;17.070;2024-01-30T02:13:56;48.45;;;23.17;;
14876;SDS011;69691;48.172;17.070;2024-01-30T02:16:22;47.90;;;24.77;;
14876;SDS011;69691;48.172;17.070;2024-01-30T02:18:48;45.00;;;22.92;;
14876;SDS011;69691;48.172;17.070;2024-01-30T02:21:17;43.10;;;22.30;;
14876;SDS011;69691;48.172;17.070;2024-01-30T02:23:44;43.03;;;21.98;;
14876;SDS011;69691;48.172;17.070;2024-01-30T02:26:12;42.95;;;22.30;;
14876;SDS011;69691;48.172;17.070;2024-01-30T02:28:38;48.83;;;23.02;;
14876;SDS011;69691;48.172;17.070;2024-01-30T02:31:04;49.20;;;23.77;;
14876;SDS011;69691;48.172;17.070;2024-01-30T02:33:30;46.30;;;23.00;;
14876;SDS011;69691;48.172;17.070;2024-01-30T02:35:56;56.60;;;21.20;;
14876;SDS011;69691;48.172;17.070;2024-01-30T02:38:22;47.35;;;22.17;;
14876;SDS011;69691;48.172;17.070;2024-01-30T02:40:48;42.10;;;20.90;;
14876;SDS011;69691;48.172;17.070;2024-01-30T02:43:15;43.08;;;18.88;;
14876;SDS011;69691;48.172;17.070;2024-01-30T02:45:41;47.05;;;23.75;;
14876;SDS011;69691;48.172;17.070;2024-01-30T02:48:07;36.95;;;19.27;;
14876;SDS011;69691;48.172;17.070;2024-01-30T02:50:33;44.67;;;20.52;;
14876;SDS011;69691;48.172;17.070;2024-01-30T02:52:59;39.88;;;21.23;;
14876;SDS011;69691;48.172;17.070;2024-01-30T02:55:25;46.72;;;23.33;;
14876;SDS011;69691;48.172;17.070;2024-01-30T02:57:51;42.10;;;20.27;;
14876;SDS011;69691;48.172;17.070;2024-01-30T03:00:17;43.67;;;20.85;;
14876;SDS011;69691;48.172;17.070;2024-01-30T03:02:45;48.83;;;22.55;;
14876;SDS011;69691;48.172;17.070;2024-01-30T03:05:11;49.65;;;23.10;;
14876;SDS011;69691;48.172;17.070;2024-01-30T03:07:37;43.42;;;21.63;;
14876;SDS011;69691;48.172;17.070;2024-01-30T03:10:04;49.33;;;23.02;;
14876;SDS011;69691;48.172;17.070;2024-01-30T03:12:31;47.33;;;21.20;;
14876;SDS011;69691;48.172;17.070;2024-01-30T03:14:57;43.17;;;22.65;;
14876;SDS011;69691;48.172;17.070;2024-01-30T03:17:23;43.30;;;22.13;;
14876;SDS011;69691;48.172;17.070;2024-01-30T03:19:49;40.03;;;18.65;;
14876;SDS011;69691;48.172;17.070;2024-01-30T03:22:16;35.75;;;21.10;;
14876;SDS011;69691;48.172;17.070;2024-01-30T03:24:42;42.03;;;21.40;;
14876;SDS011;69691;48.172;17.070;2024-01-30T03:27:08;40.28;;;20.67;;
14876;SDS011;69691;48.172;17.070;2024-01-30T03:29:34;41.08;;;18.20;;
14876;SDS011;69691;48.172;17.070;2024-01-30T03:32:00;44.58;;;22.65;;
14876;SDS011;69691;48.172;17.070;2024-01-30T03:34:26;42.45;;;21.40;;
14876;SDS011;69691;48.172;17.070;2024-01-30T03:36:51;50.95;;;21.58;;
14876;SDS011;69691;48.172;17.070;2024-01-30T03:39:17;47.10;;;21.33;;
14876;SDS011;69691;48.172;17.070;2024-01-30T03:41:43;46.15;;;20.48;;
14876;SDS011;69691;48.172;17.070;2024-01-30T03:44:09;42.53;;;19.75;;
14876;SDS011;69691;48.172;17.070;2024-01-30T03:46:36;42.72;;;21.58;;
14876;SDS011;69691;48.172;17.070;2024-01-30T03:49:02;44.90;;;22.85;;
14876;SDS011;69691;48.172;17.070;2024-01-30T03:51:28;50.30;;;23.20;;
14876;SDS011;69691;48.172;17.070;2024-01-30T03:53:54;47.15;;;24.55;;
14876;SDS011;69691;48.172;17.070;2024-01-30T03:56:20;40.03;;;20.02;;
14876;SDS011;69691;48.172;17.070;2024-01-30T03:58:45;47.28;;;23.25;;
14876;SDS011;69691;48.172;17.070;2024-01-30T04:01:14;47.00;;;23.00;;
14876;SDS011;69691;48.172;17.070;2024-01-30T04:03:40;49.05;;;23.42;;
14876;SDS011;69691;48.172;17.070;2024-01-30T04:06:07;45.90;;;22.27;;
14876;SDS011;69691;48.172;17.070;2024-01-30T04:08:33;47.38;;;21.73;;
14876;SDS011;69691;48.172;17.070;2024-01-30T04:11:02;48.33;;;22.80;;
14876;SDS011;69691;48.172;17.070;2024-01-30T04:13:32;43.30;;;23.13;;
14876;SDS011;69691;48.172;17.070;2024-01-30T04:15:59;47.72;;;22.23;;
14876;SDS011;69691;48.172;17.070;2024-01-30T04:18:29;43.42;;;22.35;;
14876;SDS011;69691;48.172;17.070;2024-01-30T04:20:55;46.88;;;21.17;;
14876;SDS011;69691;48.172;17.070;2024-01-30T04:23:21;48.65;;;20.65;;
14876;SDS011;69691;48.172;17.070;2024-01-30T04:25:47;42.35;;;20.48;;
14876;SDS011;69691;48.172;17.070;2024-01-30T04:28:13;37.88;;;17.77;;
14876;SDS011;69691;48.172;17.070;2024-01-30T04:30:39;46.15;;;22.23;;
14876;SDS011;69691;48.172;17.070;2024-01-30T04:33:05;43.55;;;22.13;;
14876;SDS011;69691;48.172;17.070;2024-01-30T04:35:31;41.38;;;23.67;;
14876;SDS011;69691;48.172;17.070;2024-01-30T04:37:57;37.65;;;19.73;;
14876;SDS011;69691;48.172;17.070;2024-01-30T04:40:23;37.53;;;17.73;;
14876;SDS011;69691;48.172;17.070;2024-01-30T04:42:48;41.42;;;20.77;;
14876;SDS011;69691;48.172;17.070;2024-01-30T04:45:14;40.17;;;20.90;;
14876;SDS011;69691;48.172;17.070;2024-01-30T04:47:40;48.50;;;22.98;;
14876;SDS011;69691;48.172;17.070;2024-01-30T04:50:06;51.22;;;23.33;;
14876;SDS011;69691;48.172;17.070;2024-01-30T04:52:34;41.00;;;22.17;;
14876;SDS011;69691;48.172;17.070;2024-01-30T04:55:00;53.50;;;23.15;;
14876;SDS011;69691;48.172;17.070;2024-01-30T04:57:26;36.38;;;20.55;;
14876;SDS011;69691;48.172;17.070;2024-01-30T04:59:51;49.25;;;22.80;;
14876;SDS011;69691;48.172;17.070;2024-01-30T05:02:17;49.65;;;23.33;;
14876;SDS011;69691;48.172;17.070;2024-01-30T05:04:43;48.60;;;23.95;;
14876;SDS011;69691;48.172;17.070;2024-01-30T05:07:09;43.92;;;21.70;;
14876;SDS011;69691;48.172;17.070;2024-01-30T05:09:35;45.10;;;22.02;;
14876;SDS011;69691;48.172;17.070;2024-01-30T05:12:01;52.28;;;23.52;;
14876;SDS011;69691;48.172;17.070;2024-01-30T05:14:26;53.70;;;23.33;;
14876;SDS011;69691;48.172;17.070;2024-01-30T05:16:52;48.80;;;23.23;;
14876;SDS011;69691;48.172;17.070;2024-01-30T05:19:18;48.50;;;22.38;;
14876;SDS011;69691;48.172;17.070;2024-01-30T05:21:45;43.20;;;20.08;;
14876;SDS011;69691;48.172;17.070;2024-01-30T05:24:11;49.13;;;21.48;;
14876;SDS011;69691;48.172;17.070;2024-01-30T05:26:37;44.97;;;23.00;;
14876;SDS011;69691;48.172;17.070;2024-01-30T05:29:03;45.03;;;22.77;;
14876;SDS011;69691;48.172;17.070;2024-01-30T05:31:29;47.25;;;23.92;;
14876;SDS011;69691;48.172;17.070;2024-01-30T05:33:54;48.72;;;23.75;;
14876;SDS011;69691;48.172;17.070;2024-01-30T05:36:20;41.03;;;22.75;;
14876;SDS011;69691;48.172;17.070;2024-01-30T05:38:47;46.25;;;21.77;;
14876;SDS011;69691;48.172;17.070;2024-01-30T05:41:13;50.70;;;24.42;;
14876;SDS011;69691;48.172;17.070;2024-01-30T05:43:38;49.45;;;24.10;;
14876;SDS011;69691;48.172;17.070;2024-01-30T05:46:04;51.17;;;22.33;;
14876;SDS011;69691;48.172;17.070;2024-01-30T05:48:31;43.70;;;21.45;;
14876;SDS011;69691;48.172;17.070;2024-01-30T05:50:57;46.50;;;20.77;;
14876;SDS011;69691;48.172;17.070;2024-01-30T05:53:25;49.30;;;23.20;;
14876;SDS011;69691;48.172;17.070;2024-01-30T05:55:50;60.47;;;23.88;;
14876;SDS011;69691;48.172;17.070;2024-01-30T05:58:16;37.35;;;19.92;;
14876;SDS011;69691;48.172;17.070;2024-01-30T06:00:42;49.35;;;24.63;;
14876;SDS011;69691;48.172;17.070;2024-01-30T06:03:08;52.40;;;23.73;;
14876;SDS011;69691;48.172;17.070;2024-01-30T06:05:34;42.50;;;21.70;;
14876;SDS011;69691;48.172;17.070;2024-01-30T06:07:59;44.20;;;23.02;;
14876;SDS011;69691;48.172;17.070;2024-01-30T06:10:25;46.65;;;22.48;;
14876;SDS011;69691;48.172;17.070;2024-01-30T06:12:51;51.28;;;25.60;;
14876;SDS011;69691;48.172;17.070;2024-01-30T06:15:17;50.55;;;23.67;;
14876;SDS011;69691;48.172;17.070;2024-01-30T06:17:43;45.72;;;23.13;;
14876;SDS011;69691;48.172;17.070;2024-01-30T06:20:09;41.42;;;18.67;;
14876;SDS011;69691;48.172;17.070;2024-01-30T06:22:35;45.17;;;20.42;;
14876;SDS011;69691;48.172;17.070;2024-01-30T06:25:01;53.40;;;24.52;;
14876;SDS011;69691;48.172;17.070;2024-01-30T06:27:27;49.75;;;23.02;;
14876;SDS011;69691;48.172;17.070;2024-01-30T06:29:53;47.25;;;22.15;;
14876;SDS011;69691;48.172;17.070;2024-01-30T06:32:19;54.45;;;25.05;;
14876;SDS011;69691;48.172;17.070;2024-01-30T06:34:45;57.33;;;24.40;;
14876;SDS011;69691;48.172;17.070;2024-01-30T06:37:10;46.20;;;22.95;;
14876;SDS011;69691;48.172;17.070;2024-01-30T06:39:36;44.75;;;22.77;;
14876;SDS011;69691;48.172;17.070;2024-01-30T06:42:02;39.28;;;22.25;;
14876;SDS011;69691;48.172;17.070;2024-01-30T06:44:28;43.22;;;22.83;;
14876;SDS011;69691;48.172;17.070;2024-01-30T06:46:54;48.17;;;23.67;;
14876;SDS011;69691;48.172;17.070;2024-01-30T06:49:20;27.80;;;15.13;;
14876;SDS011;69691;48.172;17.070;2024-01-30T06:51:47;44.15;;;22.75;;
14876;SDS011;69691;48.172;17.070;2024-01-30T06:54:13;47.00;;;22.98;;
14876;SDS011;69691;48.172;17.070;2024-01-30T06:56:39;53.90;;;22.55;;
14876;SDS011;69691;48.172;17.070;2024-01-30T06:59:05;49.38;;;23.85;;
14876;SDS011;69691;48.172;17.070;2024-01-30T07:01:30;43.53;;;21.95;;
14876;SDS011;69691;48.172;17.070;2024-01-30T07:03:57;49.08;;;25.00;;
14876;SDS011;69691;48.172;17.070;2024-01-30T07:06:23;44.13;;;22.17;;
14876;SDS011;69691;48.172;17.070;2024-01-30T07:08:49;43.20;;;22.08;;
14876;SDS011;69691;48.172;17.070;2024-01-30T07:11:21;45.47;;;19.63;;
14876;SDS011;69691;48.172;17.070;2024-01-30T07:13:49;44.58;;;22.58;;
14876;SDS011;69691;48.172;17.070;2024-01-30T07:16:16;49.47;;;23.67;;
14876;SDS011;69691;48.172;17.070;2024-01-30T07:18:43;51.05;;;25.67;;
14876;SDS011;69691;48.172;17.070;2024-01-30T07:21:09;49.53;;;24.30;;
14876;SDS011;69691;48.172;17.070;2024-01-30T07:23:35;49.88;;;25.48;;
14876;SDS011;69691;48.172;17.070;2024-01-30T07:26:07;48.70;;;25.40;;
14876;SDS011;69691;48.172;17.070;2024-01-30T07:28:34;49.03;;;25.65;;
14876;SDS011;69691;48.172;17.070;2024-01-30T07:31:00;50.03;;;25.55;;
14876;SDS011;69691;48.172;17.070;2024-01-30T07:33:27;51.72;;;24.10;;
14876;SDS011;69691;48.172;17.070;2024-01-30T07:35:53;52.15;;;23.08;;
14876;SDS011;69691;48.172;17.070;2024-01-30T07:38:19;47.53;;;24.05;;
14876;SDS011;69691;48.172;17.070;2024-01-30T07:40:45;43.88;;;23.55;;
14876;SDS011;69691;48.172;17.070;2024-01-30T07:43:11;39.28;;;20.13;;
14876;SDS011;69691;48.172;17.070;2024-01-30T07:45:37;49.38;;;24.63;;
14876;SDS011;69691;48.172;17.070;2024-01-30T07:48:05;50.03;;;25.25;;
14876;SDS011;69691;48.172;17.070;2024-01-30T07:50:31;45.75;;;21.92;;
14876;SDS011;69691;48.172;17.070;2024-01-30T07:52:59;46.22;;;22.98;;
14876;SDS011;69691;48.172;17.070;2024-01-30T07:55:25;54.08;;;25.08;;
14876;SDS011;69691;48.172;17.070;2024-01-30T07:57:54;47.15;;;23.08;;
14876;SDS011;69691;48.172;17.070;2024-01-30T08:00:21;47.55;;;24.33;;
14876;SDS011;69691;48.172;17.070;2024-01-30T08:02:47;46.38;;;24.92;;
14876;SDS011;69691;48.172;17.070;2024-01-30T08:05:13;45.90;;;22.83;;
14876;SDS011;69691;48.172;17.070;2024-01-30T08:07:41;52.63;;;24.33;;
14876;SDS011;69691;48.172;17.070;2024-01-30T08:10:11;53.28;;;24.70;;
14876;SDS011;69691;48.172;17.070;2024-01-30T08:12:38;60.05;;;25.48;;
14876;SDS011;69691;48.172;17.070;2024-01-30T08:15:04;50.25;;;24.35;;
14876;SDS011;69691;48.172;17.070;2024-01-30T08:17:30;48.97;;;25.48;;
14876;SDS011;69691;48.172;17.070;2024-01-30T08:19:56;57.75;;;28.20;;
14876;SDS011;69691;48.172;17.070;2024-01-30T08:22:22;56.95;;;24.10;;
14876;SDS011;69691;48.172;17.070;2024-01-30T08:24:48;46.50;;;24.52;;
14876;SDS011;69691;48.172;17.070;2024-01-30T08:27:14;49.05;;;24.13;;
14876;SDS011;69691;48.172;17.070;2024-01-30T08:29:40;50.80;;;24.10;;
14876;SDS011;69691;48.172;17.070;2024-01-30T08:32:06;47.78;;;22.38;;
14876;SDS011;69691;48.172;17.070;2024-01-30T08:34:32;50.03;;;24.52;;
14876;SDS011;69691;48.172;17.070;2024-01-30T08:36:58;50.92;;;23.88;;
14876;SDS011;69691;48.172;17.070;2024-01-30T08:39:24;43.53;;;22.42;;
14876;SDS011;69691;48.172;17.070;2024-01-30T08:41:50;51.30;;;25.70;;
14876;SDS011;69691;48.172;17.070;2024-01-30T08:44:16;39.40;;;22.15;;
14876;SDS011;69691;48.172;17.070;2024-01-30T08:46:43;44.03;;;23.33;;
14876;SDS011;69691;48.172;17.070;2024-01-30T08:49:13;46.10;;;22.67;;
14876;SDS011;69691;48.172;17.070;2024-01-30T08:51:41;46.50;;;23.42;;
14876;SDS011;69691;48.172;17.070;2024-01-30T08:54:07;45.45;;;21.88;;
14876;SDS011;69691;48.172;17.070;2024-01-30T08:56:33;44.08;;;23.83;;
14876;SDS011;69691;48.172;17.070;2024-01-30T08:58:59;44.40;;;24.33;;
14876;SDS011;69691;48.172;17.070;2024-01-30T09:01:25;45.67;;;23.67;;
14876;SDS011;69691;48.172;17.070;2024-01-30T09:03:51;49.72;;;24.23;;
14876;SDS011;69691;48.172;17.070;2024-01-30T09:06:17;42.75;;;24.10;;
14876;SDS011;69691;48.172;17.070;2024-01-30T09:08:43;41.45;;;22.55;;
14876;SDS011;69691;48.172;17.070;2024-01-30T09:11:09;41.17;;;21.95;;
14876;SDS011;69691;48.172;17.070;2024-01-30T09:13:40;39.63;;;22.85;;
14876;SDS011;69691;48.172;17.070;2024-01-30T09:16:06;48.40;;;22.38;;
14876;SDS011;69691;48.172;17.070;2024-01-30T09:18:33;44.58;;;22.33;;
14876;SDS011;69691;48.172;17.070;2024-01-30T09:20:59;51.72;;;24.05;;
14876;SDS011;69691;48.172;17.070;2024-01-30T09:23:26;43.85;;;22.42;;
14876;SDS011;69691;48.172;17.070;2024-01-30T09:25:54;41.13;;;23.40;;
14876;SDS011;69691;48.172;17.070;2024-01-30T09:28:20;44.03;;;22.65;;
14876;SDS011;69691;48.172;17.070;2024-01-30T09:30:46;48.33;;;23.30;;
14876;SDS011;69691;48.172;17.070;2024-01-30T09:33:12;42.30;;;20.95;;
14876;SDS011;69691;48.172;17.070;2024-01-30T09:35:38;44.95;;;22.30;;
14876;SDS011;69691;48.172;17.070;2024-01-30T09:38:04;42.03;;;21.75;;
14876;SDS011;69691;48.172;17.070;2024-01-30T09:40:29;36.92;;;21.45;;
14876;SDS011;69691;48.172;17.070;2024-01-30T09:42:55;40.15;;;20.48;;
14876;SDS011;69691;48.172;17.070;2024-01-30T09:45:25;42.42;;;21.80;;
14876;SDS011;69691;48.172;17.070;2024-01-30T09:47:51;38.30;;;21.90;;
14876;SDS011;69691;48.172;17.070;2024-01-30T09:50:18;39.85;;;21.73;;
14876;SDS011;69691;48.172;17.070;2024-01-30T09:52:45;43.03;;;22.73;;
14876;SDS011;69691;48.172;17.070;2024-01-30T09:55:12;45.80;;;22.05;;
14876;SDS011;69691;48.172;17.070;2024-01-30T09:57:39;38.35;;;18.73;;
14876;SDS011;69691;48.172;17.070;2024-01-30T10:00:06;37.67;;;20.15;;
14876;SDS011;69691;48.172;17.070;2024-01-30T10:02:39;36.30;;;22.38;;
14876;SDS011;69691;48.172;17.070;2024-01-30T10:05:06;30.75;;;18.02;;
14876;SDS011;69691;48.172;17.070;2024-01-30T10:07:33;35.05;;;19.58;;
14876;SDS011;69691;48.172;17.070;2024-01-30T10:09:59;36.35;;;19.90;;
14876;SDS011;69691;48.172;17.070;2024-01-30T10:12:25;38.50;;;19.90;;
14876;SDS011;69691;48.172;17.070;2024-01-30T10:14:52;37.05;;;19.50;;
14876;SDS011;69691;48.172;17.070;2024-01-30T10:17:19;38.40;;;20.45;;
14876;SDS011;69691;48.172;17.070;2024-01-30T10:19:46;41.90;;;20.83;;
14876;SDS011;69691;48.172;17.070;2024-01-30T10:22:12;35.63;;;19.00;;
14876;SDS011;69691;48.172;17.070;2024-01-30T10:24:39;35.17;;;18.45;;
14876;SDS011;69691;48.172;17.070;2024-01-30T10:27:05;35.33;;;19.45;;
14876;SDS011;69691;48.172;17.070;2024-01-30T10:29:32;41.55;;;20.52;;
14876;SDS011;69691;48.172;17.070;2024-01-30T10:31:58;34.03;;;18.55;;
14876;SDS011;69691;48.172;17.070;2024-01-30T10:34:28;39.13;;;19.48;;
14876;SDS011;69691;48.172;17.070;2024-01-30T10:36:59;36.47;;;20.13;;
14876;SDS011;69691;48.172;17.070;2024-01-30T10:39:38;34.03;;;17.25;;
14876;SDS011;69691;48.172;17.070;2024-01-30T10:42:06;35.05;;;19.73;;
14876;SDS011;69691;48.172;17.070;2024-01-30T10:44:44;32.25;;;17.77;;
14876;SDS011;69691;48.172;17.070;2024-01-30T10:47:13;35.58;;;19.15;;
14876;SDS011;69691;48.172;17.070;2024-01-30T10:49:52;32.75;;;16.73;;
14876;SDS011;69691;48.172;17.070;2024-01-30T10:52:20;28.80;;;17.60;;
14876;SDS011;69691;48.172;17.070;2024-01-30T10:54:48;37.28;;;17.73;;
14876;SDS011;69691;48.172;17.070;2024-01-30T10:57:17;30.27;;;17.13;;
14876;SDS011;69691;48.172;17.070;2024-01-30T10:59:43;33.47;;;18.80;;
14876;SDS011;69691;48.172;17.070;2024-01-30T11:02:10;30.75;;;18.05;;
14876;SDS011;69691;48.172;17.070;2024-01-30T11:04:37;34.88;;;17.45;;
14876;SDS011;69691;48.172;17.070;2024-01-30T11:07:23;33.05;;;16.45;;
14876;SDS011;69691;48.172;17.070;2024-01-30T11:12:26;28.50;;;16.23;;
14876;SDS011;69691;48.172;17.070;2024-01-30T11:18:12;35.72;;;18.70;;
14876;SDS011;69691;48.172;17.070;2024-01-30T11:20:31;35.22;;;18.05;;
14876;SDS011;69691;48.172;17.070;2024-01-30T11:22:58;26.27;;;16.08;;
14876;SDS011;69691;48.172;17.070;2024-01-30T11:25:27;34.65;;;17.50;;
14876;SDS011;69691;48.172;17.070;2024-01-30T11:27:56;28.10;;;16.58;;
14876;SDS011;69691;48.172;17.070;2024-01-30T11:30:25;29.65;;;18.13;;
14876;SDS011;69691;48.172;17.070;2024-01-30T11:33:03;34.90;;;18.75;;
14876;SDS011;69691;48.172;17.070;2024-01-30T11:35:34;31.20;;;18.35;;
14876;SDS011;69691;48.172;17.070;2024-01-30T11:38:05;28.23;;;16.08;;
14876;SDS011;69691;48.172;17.070;2024-01-30T11:40:33;36.85;;;17.25;;
14876;SDS011;69691;48.172;17.070;2024-01-30T11:43:01;37.20;;;17.35;;
14876;SDS011;69691;48.172;17.070;2024-01-30T11:45:28;32.75;;;18.15;;
14876;SDS011;69691;48.172;17.070;2024-01-30T11:47:54;38.75;;;19.50;;
14876;SDS011;69691;48.172;17.070;2024-01-30T11:50:21;32.67;;;17.52;;
14876;SDS011;69691;48.172;17.070;2024-01-30T11:52:47;37.22;;;19.75;;
14876;SDS011;69691;48.172;17.070;2024-01-30T11:55:14;35.75;;;18.85;;
14876;SDS011;69691;48.172;17.070;2024-01-30T11:57:40;32.83;;;19.15;;
14876;SDS011;69691;48.172;17.070;2024-01-30T12:00:13;27.83;;;15.93;;
14876;SDS011;69691;48.172;17.070;2024-01-30T12:02:41;30.42;;;16.20;;
14876;SDS011;69691;48.172;17.070;2024-01-30T12:05:08;27.85;;;15.85;;
14876;SDS011;69691;48.172;17.070;2024-01-30T12:07:34;30.08;;;14.90;;
14876;SDS011;69691;48.172;17.070;2024-01-30T12:10:01;27.23;;;15.38;;
14876;SDS011;69691;48.172;17.070;2024-01-30T12:12:28;30.27;;;16.88;;
14876;SDS011;69691;48.172;17.070;2024-01-30T12:14:55;31.33;;;15.68;;
14876;SDS011;69691;48.172;17.070;2024-01-30T12:17:28;35.97;;;16.30;;
14876;SDS011;69691;48.172;17.070;2024-01-30T12:22:42;28.70;;;14.98;;
14876;SDS011;69691;48.172;17.070;2024-01-30T12:25:16;23.35;;;13.23;;
14876;SDS011;69691;48.172;17.070;2024-01-30T12:27:50;29.40;;;15.18;;
14876;SDS011;69691;48.172;17.070;2024-01-30T12:30:16;25.10;;;14.73;;
14876;SDS011;69691;48.172;17.070;2024-01-30T12:32:45;24.88;;;13.95;;
14876;SDS011;69691;48.172;17.070;2024-01-30T12:35:13;20.48;;;11.40;;
14876;SDS011;69691;48.172;17.070;2024-01-30T12:37:44;26.17;;;14.02;;
14876;SDS011;69691;48.172;17.070;2024-01-30T12:40:11;22.23;;;12.30;;
14876;SDS011;69691;48.172;17.070;2024-01-30T12:42:41;22.83;;;13.57;;
14876;SDS011;69691;48.172;17.070;2024-01-30T12:45:08;23.88;;;12.90;;
14876;SDS011;69691;48.172;17.070;2024-01-30T12:47:34;22.70;;;13.30;;
14876;SDS011;69691;48.172;17.070;2024-01-30T12:50:00;25.17;;;12.98;;
14876;SDS011;69691;48.172;17.070;2024-01-30T12:52:26;19.52;;;11.27;;
14876;SDS011;69691;48.172;17.070;2024-01-30T12:54:52;26.92;;;13.55;;
14876;SDS011;69691;48.172;17.070;2024-01-30T12:57:18;22.52;;;12.60;;
14876;SDS011;69691;48.172;17.070;2024-01-30T12:59:45;21.75;;;11.85;;
14876;SDS011;69691;48.172;17.070;2024-01-30T13:02:12;24.38;;;13.13;;
14876;SDS011;69691;48.172;17.070;2024-01-30T13:04:38;24.77;;;11.40;;
14876;SDS011;69691;48.172;17.070;2024-01-30T13:07:05;20.63;;;11.23;;
14876;SDS011;69691;48.172;17.070;2024-01-30T13:09:31;19.08;;;10.35;;
14876;SDS011;69691;48.172;17.070;2024-01-30T13:11:57;20.50;;;10.90;;
14876;SDS011;69691;48.172;17.070;2024-01-30T13:14:25;17.30;;;10.15;;
14876;SDS011;69691;48.172;17.070;2024-01-30T13:16:51;19.52;;;9.80;;
14876;SDS011;69691;48.172;17.070;2024-01-30T13:19:17;15.15;;;8.90;;
14876;SDS011;69691;48.172;17.070;2024-01-30T13:21:43;15.07;;;10.27;;
14876;SDS011;69691;48.172;17.070;2024-01-30T13:24:10;16.92;;;9.95;;
14876;SDS011;69691;48.172;17.070;2024-01-30T13:26:36;18.45;;;9.98;;
14876;SDS011;69691;48.172;17.070;2024-01-30T13:29:02;17.73;;;9.73;;
14876;SDS011;69691;48.172;17.070;2024-01-30T13:31:28;17.60;;;9.38;;
14876;SDS011;69691;48.172;17.070;2024-01-30T13:33:55;15.65;;;9.07;;
14876;SDS011;69691;48.172;17.070;2024-01-30T13:36:21;15.05;;;8.50;;
14876;SDS011;69691;48.172;17.070;2024-01-30T13:38:47;20.02;;;10.30;;
14876;SDS011;69691;48.172;17.070;2024-01-30T13:41:13;19.13;;;10.55;;
14876;SDS011;69691;48.172;17.070;2024-01-30T13:43:39;18.75;;;9.18;;
14876;SDS011;69691;48.172;17.070;2024-01-30T13:46:05;16.17;;;9.75;;
14876;SDS011;69691;48.172;17.070;2024-01-30T13:48:31;20.85;;;10.80;;
14876;SDS011;69691;48.172;17.070;2024-01-30T13:50:57;17.67;;;9.32;;
14876;SDS011;69691;48.172;17.070;2024-01-30T13:53:23;20.42;;;10.38;;
14876;SDS011;69691;48.172;17.070;2024-01-30T13:55:49;19.08;;;10.25;;
14876;SDS011;69691;48.172;17.070;2024-01-30T13:58:14;20.27;;;10.15;;
14876;SDS011;69691;48.172;17.070;2024-01-30T14:00:40;19.17;;;10.27;;
14876;SDS011;69691;48.172;17.070;2024-01-30T14:03:06;18.83;;;10.40;;
14876;SDS011;69691;48.172;17.070;2024-01-30T14:05:32;17.58;;;10.05;;
14876;SDS011;69691;48.172;17.070;2024-01-30T14:07:58;21.75;;;9.82;;
14876;SDS011;69691;48.172;17.070;2024-01-30T14:10:25;18.00;;;9.80;;
14876;SDS011;69691;48.172;17.070;2024-01-30T14:12:51;17.58;;;9.50;;
14876;SDS011;69691;48.172;17.070;2024-01-30T14:15:17;20.95;;;11.68;;